sensor_id;sensor_type;location;lat;lon;timestamp;pressure;altitude;pressure_sealevel;temperature;humidity
20119;BME280;10220;42.716;23.306;2023-04-01T00:02:16;94403.88;;;12.92;100.00
20119;BME280;10220;42.716;23.306;2023-04-01T00:04:42;94407.19;;;12.88;100.00
20119;BME280;10220;42.716;23.306;2023-04-01T00:07:08;94427.38;;;12.97;100.00
20119;BME280;10220;42.716;23.306;2023-04-01T00:09:34;94426.59;;;13.13;100.00
20119;BME280;10220;42.716;23.306;2023-04-01T00:12:00;94420.66;;;13.01;100.00
20119;BME280;10220;42.716;23.306;2023-04-01T00:14:25;94427.63;;;12.40;100.00
20119;BME280;10220;42.716;23.306;2023-04-01T00:16:51;94416.72;;;12.55;100.00
20119;BME280;10220;42.716;23.306;2023-04-01T00:19:17;94422.72;;;12.72;100.00
20119;BME280;10220;42.716;23.306;2023-04-01T00:21:43;94424.84;;;12.19;100.00
20119;BME280;10220;42.716;23.306;2023-04-01T00:24:08;94413.06;;;12.00;100.00
20119;BME280;10220;42.716;23.306;2023-04-01T00:26:34;94417.41;;;11.83;100.00
20119;BME280;10220;42.716;23.306;2023-04-01T00:28:59;94411.16;;;11.96;100.00
20119;BME280;10220;42.716;23.306;2023-04-01T00:31:25;94394.34;;;11.98;100.00
20119;BME280;10220;42.716;23.306;2023-04-01T00:33:51;94408.75;;;12.17;100.00
20119;BME280;10220;42.716;23.306;2023-04-01T00:36:19;94401.44;;;12.03;100.00
20119;BME280;10220;42.716;23.306;2023-04-01T00:38:44;94404.06;;;11.91;100.00
20119;BME280;10220;42.716;23.306;2023-04-01T00:41:11;94406.25;;;11.83;100.00
20119;BME280;10220;42.716;23.306;2023-04-01T00:43:40;94393.19;;;11.21;100.00
20119;BME280;10220;42.716;23.306;2023-04-01T00:46:05;94380.22;;;10.98;100.00
20119;BME280;10220;42.716;23.306;2023-04-01T00:48:34;94383.72;;;11.15;100.00
20119;BME280;10220;42.716;23.306;2023-04-01T00:51:14;94383.47;;;11.16;100.00
20119;BME280;10220;42.716;23.306;2023-04-01T00:53:48;94366.16;;;11.28;100.00
20119;BME280;10220;42.716;23.306;2023-04-01T00:56:18;94375.16;;;11.26;100.00
20119;BME280;10220;42.716;23.306;2023-04-01T00:58:49;94371.28;;;11.40;100.00
20119;BME280;10220;42.716;23.306;2023-04-01T01:01:16;94366.47;;;11.32;100.00
20119;BME280;10220;42.716;23.306;2023-04-01T01:03:42;94349.91;;;11.33;100.00
20119;BME280;10220;42.716;23.306;2023-04-01T01:06:19;94346.84;;;11.36;100.00
20119;BME280;10220;42.716;23.306;2023-04-01T01:11:23;94337.69;;;11.45;100.00
20119;BME280;10220;42.716;23.306;2023-04-01T01:14:02;94327.47;;;11.50;100.00
20119;BME280;10220;42.716;23.306;2023-04-01T01:16:38;94339.41;;;11.28;100.00
20119;BME280;10220;42.716;23.306;2023-04-01T01:27:11;94329.59;;;11.53;100.00
20119;BME280;10220;42.716;23.306;2023-04-01T01:37:38;94312.72;;;11.78;100.00
20119;BME280;10220;42.716;23.306;2023-04-01T01:40:08;94320.69;;;11.60;100.00
20119;BME280;10220;42.716;23.306;2023-04-01T01:42:37;94317.31;;;11.37;100.00
20119;BME280;10220;42.716;23.306;2023-04-01T01:45:05;94309.72;;;11.58;100.00
20119;BME280;10220;42.716;23.306;2023-04-01T01:47:32;94309.25;;;11.73;100.00
20119;BME280;10220;42.716;23.306;2023-04-01T01:49:59;94306.25;;;11.53;100.00
20119;BME280;10220;42.716;23.306;2023-04-01T01:52:27;94308.59;;;11.66;100.00
20119;BME280;10220;42.716;23.306;2023-04-01T01:54:55;94294.56;;;11.78;100.00
20119;BME280;10220;42.716;23.306;2023-04-01T01:57:34;94324.22;;;11.82;100.00
20119;BME280;10220;42.716;23.306;2023-04-01T02:00:07;94315.91;;;11.69;100.00
20119;BME280;10220;42.716;23.306;2023-04-01T02:02:40;94315.75;;;11.75;100.00
20119;BME280;10220;42.716;23.306;2023-04-01T02:05:09;94295.50;;;11.61;100.00
20119;BME280;10220;42.716;23.306;2023-04-01T02:07:37;94300.34;;;11.69;100.00
20119;BME280;10220;42.716;23.306;2023-04-01T02:10:05;94286.94;;;11.60;100.00
20119;BME280;10220;42.716;23.306;2023-04-01T02:12:33;94283.25;;;11.84;100.00
20119;BME280;10220;42.716;23.306;2023-04-01T02:15:07;94289.69;;;11.81;100.00
20119;BME280;10220;42.716;23.306;2023-04-01T02:17:34;94287.72;;;11.61;100.00
20119;BME280;10220;42.716;23.306;2023-04-01T02:20:02;94283.59;;;11.60;100.00
20119;BME280;10220;42.716;23.306;2023-04-01T02:22:41;94286.78;;;11.39;100.00
20119;BME280;10220;42.716;23.306;2023-04-01T02:25:16;94279.94;;;11.61;100.00
20119;BME280;10220;42.716;23.306;2023-04-01T02:27:44;94283.31;;;11.73;100.00
20119;BME280;10220;42.716;23.306;2023-04-01T02:30:11;94284.94;;;11.39;100.00
20119;BME280;10220;42.716;23.306;2023-04-01T02:32:38;94289.66;;;11.65;100.00
20119;BME280;10220;42.716;23.306;2023-04-01T02:35:07;94285.66;;;11.23;100.00
20119;BME280;10220;42.716;23.306;2023-04-01T02:37:34;94293.00;;;11.15;100.00
20119;BME280;10220;42.716;23.306;2023-04-01T02:40:08;94266.06;;;11.05;100.00
20119;BME280;10220;42.716;23.306;2023-04-01T02:42:34;94290.91;;;11.40;100.00
20119;BME280;10220;42.716;23.306;2023-04-01T02:44:59;94300.94;;;11.48;100.00
20119;BME280;10220;42.716;23.306;2023-04-01T02:47:25;94302.09;;;11.29;100.00
20119;BME280;10220;42.716;23.306;2023-04-01T02:49:50;94313.38;;;11.23;100.00
20119;BME280;10220;42.716;23.306;2023-04-01T02:52:16;94315.00;;;10.78;100.00
20119;BME280;10220;42.716;23.306;2023-04-01T02:54:41;94294.94;;;11.08;100.00
20119;BME280;10220;42.716;23.306;2023-04-01T02:57:06;94327.69;;;11.25;100.00
20119;BME280;10220;42.716;23.306;2023-04-01T02:59:32;94325.34;;;11.12;100.00
20119;BME280;10220;42.716;23.306;2023-04-01T03:01:58;94327.03;;;11.30;100.00
20119;BME280;10220;42.716;23.306;2023-04-01T03:04:23;94319.34;;;11.35;100.00
20119;BME280;10220;42.716;23.306;2023-04-01T03:06:49;94326.22;;;11.41;100.00
20119;BME280;10220;42.716;23.306;2023-04-01T03:09:14;94317.66;;;11.40;100.00
20119;BME280;10220;42.716;23.306;2023-04-01T03:11:41;94327.81;;;11.30;100.00
20119;BME280;10220;42.716;23.306;2023-04-01T03:14:06;94310.13;;;11.05;100.00
20119;BME280;10220;42.716;23.306;2023-04-01T03:16:32;94300.47;;;10.89;100.00
20119;BME280;10220;42.716;23.306;2023-04-01T03:18:58;94323.66;;;11.07;100.00
20119;BME280;10220;42.716;23.306;2023-04-01T03:21:25;94333.03;;;10.96;100.00
20119;BME280;10220;42.716;23.306;2023-04-01T03:23:50;94318.94;;;10.81;100.00
20119;BME280;10220;42.716;23.306;2023-04-01T03:26:16;94335.56;;;10.62;100.00
20119;BME280;10220;42.716;23.306;2023-04-01T03:28:43;94332.88;;;10.57;100.00
20119;BME280;10220;42.716;23.306;2023-04-01T03:31:09;94335.25;;;10.58;100.00
20119;BME280;10220;42.716;23.306;2023-04-01T03:33:34;94321.19;;;10.54;100.00
20119;BME280;10220;42.716;23.306;2023-04-01T03:36:00;94315.44;;;10.64;100.00
20119;BME280;10220;42.716;23.306;2023-04-01T03:38:25;94319.38;;;10.66;100.00
20119;BME280;10220;42.716;23.306;2023-04-01T03:40:51;94323.97;;;10.64;100.00
20119;BME280;10220;42.716;23.306;2023-04-01T03:43:16;94304.28;;;10.75;100.00
20119;BME280;10220;42.716;23.306;2023-04-01T03:45:46;94283.91;;;10.44;100.00
20119;BME280;10220;42.716;23.306;2023-04-01T03:48:13;94258.81;;;10.56;100.00
20119;BME280;10220;42.716;23.306;2023-04-01T03:50:39;94246.97;;;10.60;100.00
20119;BME280;10220;42.716;23.306;2023-04-01T03:53:04;94257.34;;;10.71;100.00
20119;BME280;10220;42.716;23.306;2023-04-01T03:55:30;94259.81;;;10.66;100.00
20119;BME280;10220;42.716;23.306;2023-04-01T03:57:55;94237.06;;;10.68;100.00
20119;BME280;10220;42.716;23.306;2023-04-01T04:00:20;94231.09;;;10.68;100.00
20119;BME280;10220;42.716;23.306;2023-04-01T04:02:46;94218.50;;;10.71;100.00
20119;BME280;10220;42.716;23.306;2023-04-01T04:05:11;94208.47;;;10.63;100.00
20119;BME280;10220;42.716;23.306;2023-04-01T04:07:38;94216.56;;;10.67;100.00
20119;BME280;10220;42.716;23.306;2023-04-01T04:10:04;94210.84;;;10.65;100.00
20119;BME280;10220;42.716;23.306;2023-04-01T04:12:29;94199.19;;;10.79;100.00
20119;BME280;10220;42.716;23.306;2023-04-01T04:14:55;94182.09;;;10.78;100.00
20119;BME280;10220;42.716;23.306;2023-04-01T04:17:21;94192.78;;;11.20;100.00
20119;BME280;10220;42.716;23.306;2023-04-01T04:19:46;94187.44;;;11.11;100.00
20119;BME280;10220;42.716;23.306;2023-04-01T04:22:12;94154.16;;;10.80;100.00
20119;BME280;10220;42.716;23.306;2023-04-01T04:24:37;94171.03;;;10.94;100.00
20119;BME280;10220;42.716;23.306;2023-04-01T04:27:03;94194.53;;;11.04;100.00
20119;BME280;10220;42.716;23.306;2023-04-01T04:29:29;94186.59;;;10.71;100.00
20119;BME280;10220;42.716;23.306;2023-04-01T04:31:55;94192.72;;;10.65;100.00
20119;BME280;10220;42.716;23.306;2023-04-01T04:34:20;94177.19;;;10.42;100.00
20119;BME280;10220;42.716;23.306;2023-04-01T04:36:48;94172.00;;;10.42;100.00
20119;BME280;10220;42.716;23.306;2023-04-01T04:39:13;94171.22;;;10.42;100.00
20119;BME280;10220;42.716;23.306;2023-04-01T04:41:39;94168.41;;;10.43;100.00
20119;BME280;10220;42.716;23.306;2023-04-01T04:44:05;94172.44;;;10.62;100.00
20119;BME280;10220;42.716;23.306;2023-04-01T04:46:30;94163.31;;;10.59;100.00
20119;BME280;10220;42.716;23.306;2023-04-01T04:48:56;94170.75;;;10.56;100.00
20119;BME280;10220;42.716;23.306;2023-04-01T04:51:22;94150.41;;;10.48;100.00
20119;BME280;10220;42.716;23.306;2023-04-01T04:53:48;94165.75;;;10.77;100.00
20119;BME280;10220;42.716;23.306;2023-04-01T04:56:20;94145.91;;;10.83;100.00
20119;BME280;10220;42.716;23.306;2023-04-01T04:58:46;94142.81;;;10.58;100.00
20119;BME280;10220;42.716;23.306;2023-04-01T05:01:14;94152.91;;;10.82;100.00
20119;BME280;10220;42.716;23.306;2023-04-01T05:03:40;94155.03;;;10.85;100.00
20119;BME280;10220;42.716;23.306;2023-04-01T05:06:07;94156.75;;;10.80;100.00
20119;BME280;10220;42.716;23.306;2023-04-01T05:08:33;94138.75;;;10.73;100.00
20119;BME280;10220;42.716;23.306;2023-04-01T05:11:00;94120.94;;;10.77;100.00
20119;BME280;10220;42.716;23.306;2023-04-01T05:13:26;94120.19;;;11.04;100.00
20119;BME280;10220;42.716;23.306;2023-04-01T05:15:51;94118.53;;;10.87;100.00
20119;BME280;10220;42.716;23.306;2023-04-01T05:18:17;94073.84;;;10.80;100.00
20119;BME280;10220;42.716;23.306;2023-04-01T05:20:50;94114.94;;;10.88;100.00
20119;BME280;10220;42.716;23.306;2023-04-01T05:23:16;94102.72;;;11.00;100.00
20119;BME280;10220;42.716;23.306;2023-04-01T05:25:42;94100.00;;;11.06;100.00
20119;BME280;10220;42.716;23.306;2023-04-01T05:28:08;94084.38;;;11.01;100.00
20119;BME280;10220;42.716;23.306;2023-04-01T05:30:33;94103.50;;;11.28;100.00
20119;BME280;10220;42.716;23.306;2023-04-01T05:32:59;94100.22;;;11.32;100.00
20119;BME280;10220;42.716;23.306;2023-04-01T05:35:24;94097.09;;;11.47;100.00
20119;BME280;10220;42.716;23.306;2023-04-01T05:37:50;94108.38;;;11.69;100.00
20119;BME280;10220;42.716;23.306;2023-04-01T05:40:16;94123.94;;;12.01;100.00
20119;BME280;10220;42.716;23.306;2023-04-01T05:42:41;94116.06;;;12.13;100.00
20119;BME280;10220;42.716;23.306;2023-04-01T05:45:07;94097.25;;;12.60;100.00
20119;BME280;10220;42.716;23.306;2023-04-01T05:47:33;94094.59;;;12.97;100.00
20119;BME280;10220;42.716;23.306;2023-04-01T05:49:59;94094.03;;;13.17;100.00
20119;BME280;10220;42.716;23.306;2023-04-01T05:52:24;94086.38;;;13.63;100.00
20119;BME280;10220;42.716;23.306;2023-04-01T05:54:49;94074.06;;;14.16;100.00
20119;BME280;10220;42.716;23.306;2023-04-01T05:57:15;94084.31;;;14.32;93.34
20119;BME280;10220;42.716;23.306;2023-04-01T05:59:40;94089.28;;;14.90;87.83
20119;BME280;10220;42.716;23.306;2023-04-01T06:02:06;94090.38;;;15.04;81.92
20119;BME280;10220;42.716;23.306;2023-04-01T06:04:38;94098.56;;;15.22;77.03
20119;BME280;10220;42.716;23.306;2023-04-01T06:07:17;94082.91;;;15.37;74.72
20119;BME280;10220;42.716;23.306;2023-04-01T06:09:44;94090.00;;;15.61;71.69
20119;BME280;10220;42.716;23.306;2023-04-01T06:15:53;94080.88;;;15.64;72.66
20119;BME280;10220;42.716;23.306;2023-04-01T06:18:44;94095.19;;;15.46;72.57
20119;BME280;10220;42.716;23.306;2023-04-01T06:24:45;94086.13;;;14.88;74.93
20119;BME280;10220;42.716;23.306;2023-04-01T06:27:44;94081.16;;;14.81;76.08
20119;BME280;10220;42.716;23.306;2023-04-01T06:34:19;94086.53;;;14.60;80.76
20119;BME280;10220;42.716;23.306;2023-04-01T06:41:27;94066.91;;;14.38;83.30
20119;BME280;10220;42.716;23.306;2023-04-01T06:46:48;94079.56;;;13.88;83.36
20119;BME280;10220;42.716;23.306;2023-04-01T06:52:19;94056.63;;;14.21;85.02
20119;BME280;10220;42.716;23.306;2023-04-01T06:54:51;94055.84;;;14.21;84.53
20119;BME280;10220;42.716;23.306;2023-04-01T06:57:28;94036.72;;;14.06;87.09
20119;BME280;10220;42.716;23.306;2023-04-01T07:00:00;94036.44;;;13.66;90.33
20119;BME280;10220;42.716;23.306;2023-04-01T07:02:36;94034.69;;;13.71;93.05
20119;BME280;10220;42.716;23.306;2023-04-01T07:05:04;94044.50;;;14.01;91.58
20119;BME280;10220;42.716;23.306;2023-04-01T07:07:45;94043.63;;;13.90;91.70
20119;BME280;10220;42.716;23.306;2023-04-01T07:10:47;94041.84;;;14.32;90.68
20119;BME280;10220;42.716;23.306;2023-04-01T07:13:45;94027.25;;;14.36;91.27
20119;BME280;10220;42.716;23.306;2023-04-01T07:16:19;94028.50;;;14.18;91.90
20119;BME280;10220;42.716;23.306;2023-04-01T07:19:18;94026.41;;;14.20;94.33
20119;BME280;10220;42.716;23.306;2023-04-01T07:22:02;94025.34;;;14.11;94.91
20119;BME280;10220;42.716;23.306;2023-04-01T07:24:34;94042.72;;;14.52;93.74
20119;BME280;10220;42.716;23.306;2023-04-01T07:27:09;94016.72;;;14.72;91.05
20119;BME280;10220;42.716;23.306;2023-04-01T07:29:45;94031.88;;;14.80;90.68
20119;BME280;10220;42.716;23.306;2023-04-01T07:32:55;94024.38;;;15.03;89.78
20119;BME280;10220;42.716;23.306;2023-04-01T07:53:38;94019.25;;;15.63;96.51
20119;BME280;10220;42.716;23.306;2023-04-01T07:56:40;94026.81;;;15.69;90.41
20119;BME280;10220;42.716;23.306;2023-04-01T08:02:37;94013.22;;;15.77;89.52
20119;BME280;10220;42.716;23.306;2023-04-01T08:05:26;93993.91;;;15.68;87.24
20119;BME280;10220;42.716;23.306;2023-04-01T08:13:40;94002.78;;;15.82;92.07
20119;BME280;10220;42.716;23.306;2023-04-01T08:16:51;93989.44;;;15.98;89.45
20119;BME280;10220;42.716;23.306;2023-04-01T08:32:39;93978.50;;;15.62;91.94
20119;BME280;10220;42.716;23.306;2023-04-01T08:35:29;93951.34;;;15.58;94.60
20119;BME280;10220;42.716;23.306;2023-04-01T08:38:00;93921.53;;;15.84;91.05
20119;BME280;10220;42.716;23.306;2023-04-01T08:40:54;93927.50;;;16.09;90.24
20119;BME280;10220;42.716;23.306;2023-04-01T08:54:43;93881.56;;;18.49;64.89
20119;BME280;10220;42.716;23.306;2023-04-01T09:00:24;93893.53;;;19.60;56.88
20119;BME280;10220;42.716;23.306;2023-04-01T09:25:41;93882.94;;;18.83;53.24
20119;BME280;10220;42.716;23.306;2023-04-01T09:28:25;93876.78;;;18.09;49.87
20119;BME280;10220;42.716;23.306;2023-04-01T09:34:25;93852.50;;;18.04;52.56
20119;BME280;10220;42.716;23.306;2023-04-01T09:42:43;93825.38;;;17.43;56.92
20119;BME280;10220;42.716;23.306;2023-04-01T10:15:34;93802.06;;;18.12;55.65
20119;BME280;10220;42.716;23.306;2023-04-01T10:26:36;93780.72;;;18.00;51.42
20119;BME280;10220;42.716;23.306;2023-04-01T10:29:30;93768.19;;;17.73;51.59
20119;BME280;10220;42.716;23.306;2023-04-01T10:40:38;93767.09;;;17.56;52.44
20119;BME280;10220;42.716;23.306;2023-04-01T10:43:53;93750.22;;;17.44;53.51
20119;BME280;10220;42.716;23.306;2023-04-01T10:54:49;93752.72;;;17.02;58.66
20119;BME280;10220;42.716;23.306;2023-04-01T10:57:40;93752.69;;;17.07;58.21
20119;BME280;10220;42.716;23.306;2023-04-01T11:19:39;93739.91;;;17.01;60.07
20119;BME280;10220;42.716;23.306;2023-04-01T11:39:29;93876.88;;;16.53;77.97
20119;BME280;10220;42.716;23.306;2023-04-01T11:42:34;93884.34;;;16.11;89.34
20119;BME280;10220;42.716;23.306;2023-04-01T11:45:32;93917.13;;;14.75;100.00
20119;BME280;10220;42.716;23.306;2023-04-01T11:51:22;93969.69;;;12.61;100.00
20119;BME280;10220;42.716;23.306;2023-04-01T11:53:58;93952.38;;;12.24;100.00
20119;BME280;10220;42.716;23.306;2023-04-01T11:56:42;93948.16;;;11.97;100.00
20119;BME280;10220;42.716;23.306;2023-04-01T12:10:12;93967.13;;;12.19;100.00
20119;BME280;10220;42.716;23.306;2023-04-01T12:12:58;93965.38;;;12.24;100.00
20119;BME280;10220;42.716;23.306;2023-04-01T12:29:03;93966.75;;;12.31;100.00
20119;BME280;10220;42.716;23.306;2023-04-01T12:45:34;93959.69;;;12.06;100.00
20119;BME280;10220;42.716;23.306;2023-04-01T12:48:25;93966.44;;;11.85;100.00
20119;BME280;10220;42.716;23.306;2023-04-01T12:53:58;93958.63;;;12.02;100.00
20119;BME280;10220;42.716;23.306;2023-04-01T12:56:39;93934.25;;;12.03;100.00
20119;BME280;10220;42.716;23.306;2023-04-01T13:02:30;93911.41;;;12.05;100.00
20119;BME280;10220;42.716;23.306;2023-04-01T13:08:14;93918.38;;;12.47;100.00
20119;BME280;10220;42.716;23.306;2023-04-01T13:16:14;93890.31;;;12.75;100.00
20119;BME280;10220;42.716;23.306;2023-04-01T13:27:06;93886.75;;;13.17;100.00
20119;BME280;10220;42.716;23.306;2023-04-01T13:29:45;93868.47;;;12.71;100.00
20119;BME280;10220;42.716;23.306;2023-04-01T13:37:58;93853.44;;;13.09;100.00
20119;BME280;10220;42.716;23.306;2023-04-01T13:42:59;93828.72;;;13.53;100.00
20119;BME280;10220;42.716;23.306;2023-04-01T13:45:47;93832.16;;;13.63;100.00
20119;BME280;10220;42.716;23.306;2023-04-01T14:02:27;93813.88;;;14.34;100.00
20119;BME280;10220;42.716;23.306;2023-04-01T14:05:07;93823.28;;;14.55;100.00
20119;BME280;10220;42.716;23.306;2023-04-01T14:08:06;93833.47;;;14.71;100.00
20119;BME280;10220;42.716;23.306;2023-04-01T14:10:42;93817.56;;;14.83;100.00
20119;BME280;10220;42.716;23.306;2023-04-01T14:13:59;93809.97;;;14.96;100.00
20119;BME280;10220;42.716;23.306;2023-04-01T14:19:17;93823.78;;;15.12;100.00
20119;BME280;10220;42.716;23.306;2023-04-01T14:27:25;93788.28;;;15.30;100.00
20119;BME280;10220;42.716;23.306;2023-04-01T14:35:56;93778.47;;;14.53;100.00
20119;BME280;10220;42.716;23.306;2023-04-01T14:46:34;93776.25;;;13.86;100.00
20119;BME280;10220;42.716;23.306;2023-04-01T14:49:28;93765.38;;;14.08;100.00
20119;BME280;10220;42.716;23.306;2023-04-01T14:52:04;93773.72;;;14.20;100.00
20119;BME280;10220;42.716;23.306;2023-04-01T14:54:36;93769.84;;;14.28;100.00
20119;BME280;10220;42.716;23.306;2023-04-01T15:00:15;93791.72;;;14.32;100.00
20119;BME280;10220;42.716;23.306;2023-04-01T15:05:32;93791.97;;;14.20;100.00
20119;BME280;10220;42.716;23.306;2023-04-01T15:13:31;93792.53;;;14.87;100.00
20119;BME280;10220;42.716;23.306;2023-04-01T15:16:10;93796.41;;;14.99;100.00
20119;BME280;10220;42.716;23.306;2023-04-01T15:27:39;93807.09;;;15.08;100.00
20119;BME280;10220;42.716;23.306;2023-04-01T15:36:13;93798.22;;;15.09;100.00
20119;BME280;10220;42.716;23.306;2023-04-01T15:41:20;93799.75;;;15.34;100.00
20119;BME280;10220;42.716;23.306;2023-04-01T15:43:50;93817.53;;;15.27;100.00
20119;BME280;10220;42.716;23.306;2023-04-01T15:46:44;93895.78;;;15.47;100.00
20119;BME280;10220;42.716;23.306;2023-04-01T15:49:34;93998.06;;;14.29;100.00
20119;BME280;10220;42.716;23.306;2023-04-01T16:00:23;93994.28;;;10.92;100.00
20119;BME280;10220;42.716;23.306;2023-04-01T16:11:54;94029.03;;;9.55;100.00
20119;BME280;10220;42.716;23.306;2023-04-01T16:17:58;93991.72;;;9.17;100.00
20119;BME280;10220;42.716;23.306;2023-04-01T16:20:46;94052.03;;;9.23;100.00
20119;BME280;10220;42.716;23.306;2023-04-01T16:31:53;94073.28;;;9.36;100.00
20119;BME280;10220;42.716;23.306;2023-04-01T16:34:34;94052.94;;;9.17;100.00
20119;BME280;10220;42.716;23.306;2023-04-01T16:42:24;94083.59;;;9.13;100.00
20119;BME280;10220;42.716;23.306;2023-04-01T16:47:49;94082.91;;;9.18;100.00
20119;BME280;10220;42.716;23.306;2023-04-01T16:50:21;94067.78;;;9.21;100.00
20119;BME280;10220;42.716;23.306;2023-04-01T16:55:41;94090.88;;;9.16;100.00
20119;BME280;10220;42.716;23.306;2023-04-01T16:58:18;94098.28;;;9.01;100.00
20119;BME280;10220;42.716;23.306;2023-04-01T17:00:55;94113.13;;;9.17;100.00
20119;BME280;10220;42.716;23.306;2023-04-01T17:03:52;94120.53;;;9.14;100.00
20119;BME280;10220;42.716;23.306;2023-04-01T17:09:10;94120.41;;;9.09;100.00
20119;BME280;10220;42.716;23.306;2023-04-01T17:11:39;94127.38;;;9.08;100.00
20119;BME280;10220;42.716;23.306;2023-04-01T17:22:40;94158.81;;;8.87;100.00
20119;BME280;10220;42.716;23.306;2023-04-01T17:37:38;94090.50;;;8.43;100.00
20119;BME280;10220;42.716;23.306;2023-04-01T17:45:57;94148.97;;;8.49;100.00
20119;BME280;10220;42.716;23.306;2023-04-01T17:53:41;94188.44;;;8.67;100.00
20119;BME280;10220;42.716;23.306;2023-04-01T17:59:16;94186.31;;;8.64;100.00
20119;BME280;10220;42.716;23.306;2023-04-01T18:05:00;94203.28;;;8.54;100.00
20119;BME280;10220;42.716;23.306;2023-04-01T18:07:46;94210.81;;;8.55;100.00
20119;BME280;10220;42.716;23.306;2023-04-01T18:10:26;94204.19;;;8.41;100.00
20119;BME280;10220;42.716;23.306;2023-04-01T18:13:24;94224.84;;;8.41;100.00
20119;BME280;10220;42.716;23.306;2023-04-01T18:16:05;94229.59;;;8.44;100.00
20119;BME280;10220;42.716;23.306;2023-04-01T18:19:02;94236.53;;;8.44;100.00
20119;BME280;10220;42.716;23.306;2023-04-01T18:21:49;94237.56;;;8.43;100.00
20119;BME280;10220;42.716;23.306;2023-04-01T18:24:30;94233.38;;;8.42;100.00
20119;BME280;10220;42.716;23.306;2023-04-01T18:29:44;94237.69;;;8.30;100.00
20119;BME280;10220;42.716;23.306;2023-04-01T18:32:22;94238.22;;;8.32;100.00
20119;BME280;10220;42.716;23.306;2023-04-01T18:38:04;94233.66;;;8.34;100.00
20119;BME280;10220;42.716;23.306;2023-04-01T18:40:40;94228.97;;;8.24;100.00
20119;BME280;10220;42.716;23.306;2023-04-01T18:43:30;94233.28;;;8.30;100.00
20119;BME280;10220;42.716;23.306;2023-04-01T18:46:46;94220.41;;;8.30;100.00
20119;BME280;10220;42.716;23.306;2023-04-01T18:49:41;94208.00;;;8.21;100.00
20119;BME280;10220;42.716;23.306;2023-04-01T18:52:16;94232.59;;;8.41;100.00
20119;BME280;10220;42.716;23.306;2023-04-01T18:57:50;94243.88;;;8.47;100.00
20119;BME280;10220;42.716;23.306;2023-04-01T19:03:36;94257.50;;;8.54;100.00
20119;BME280;10220;42.716;23.306;2023-04-01T19:06:15;94272.56;;;8.75;100.00
20119;BME280;10220;42.716;23.306;2023-04-01T19:08:42;94270.22;;;8.73;100.00
20119;BME280;10220;42.716;23.306;2023-04-01T19:11:32;94273.09;;;8.83;100.00
20119;BME280;10220;42.716;23.306;2023-04-01T19:17:21;94253.44;;;8.40;100.00
20119;BME280;10220;42.716;23.306;2023-04-01T19:20:16;94273.81;;;8.48;100.00
20119;BME280;10220;42.716;23.306;2023-04-01T19:25:55;94276.56;;;8.53;100.00
20119;BME280;10220;42.716;23.306;2023-04-01T19:28:40;94271.53;;;8.58;100.00
20119;BME280;10220;42.716;23.306;2023-04-01T19:32:03;94279.06;;;8.59;100.00
20119;BME280;10220;42.716;23.306;2023-04-01T19:34:16;94281.75;;;8.71;100.00
20119;BME280;10220;42.716;23.306;2023-04-01T19:37:01;94279.38;;;8.69;100.00
20119;BME280;10220;42.716;23.306;2023-04-01T19:40:13;94291.63;;;8.74;100.00
20119;BME280;10220;42.716;23.306;2023-04-01T19:52:55;94320.22;;;8.96;100.00
20119;BME280;10220;42.716;23.306;2023-04-01T19:55:48;94311.03;;;9.00;100.00
20119;BME280;10220;42.716;23.306;2023-04-01T19:58:20;94312.28;;;9.16;100.00
20119;BME280;10220;42.716;23.306;2023-04-01T20:00:56;94310.09;;;9.13;100.00
20119;BME280;10220;42.716;23.306;2023-04-01T20:14:29;94319.22;;;9.15;100.00
20119;BME280;10220;42.716;23.306;2023-04-01T20:17:07;94312.50;;;9.14;100.00
20119;BME280;10220;42.716;23.306;2023-04-01T20:19:59;94319.66;;;9.12;100.00
20119;BME280;10220;42.716;23.306;2023-04-01T20:25:21;94315.78;;;9.03;100.00
20119;BME280;10220;42.716;23.306;2023-04-01T20:36:38;94332.28;;;9.20;100.00
20119;BME280;10220;42.716;23.306;2023-04-01T20:44:25;94342.63;;;9.20;100.00
20119;BME280;10220;42.716;23.306;2023-04-01T20:47:17;94333.72;;;9.16;100.00
20119;BME280;10220;42.716;23.306;2023-04-01T20:52:27;94345.00;;;9.22;100.00
20119;BME280;10220;42.716;23.306;2023-04-01T20:58:19;94346.56;;;9.05;100.00
20119;BME280;10220;42.716;23.306;2023-04-01T21:03:40;94346.78;;;9.03;100.00
20119;BME280;10220;42.716;23.306;2023-04-01T21:19:53;94371.31;;;9.12;100.00
20119;BME280;10220;42.716;23.306;2023-04-01T21:39:10;94392.09;;;9.41;100.00
20119;BME280;10220;42.716;23.306;2023-04-01T21:42:01;94385.53;;;9.21;100.00
20119;BME280;10220;42.716;23.306;2023-04-01T22:01:07;94371.06;;;8.96;100.00
20119;BME280;10220;42.716;23.306;2023-04-01T22:11:58;94366.78;;;8.90;100.00
20119;BME280;10220;42.716;23.306;2023-04-01T22:14:36;94359.03;;;8.90;100.00
20119;BME280;10220;42.716;23.306;2023-04-01T22:17:19;94370.31;;;9.13;100.00
20119;BME280;10220;42.716;23.306;2023-04-01T22:20:03;94362.50;;;9.20;100.00
20119;BME280;10220;42.716;23.306;2023-04-01T22:29:00;94363.53;;;10.19;100.00
20119;BME280;10220;42.716;23.306;2023-04-01T22:31:40;94355.97;;;10.81;100.00
20119;BME280;10220;42.716;23.306;2023-04-01T22:37:05;94361.75;;;10.31;100.00
20119;BME280;10220;42.716;23.306;2023-04-01T22:39:58;94362.47;;;9.91;100.00
20119;BME280;10220;42.716;23.306;2023-04-01T22:43:03;94365.84;;;10.09;100.00
20119;BME280;10220;42.716;23.306;2023-04-01T22:45:35;94371.38;;;9.95;100.00
20119;BME280;10220;42.716;23.306;2023-04-01T22:56:27;94372.38;;;9.05;100.00